sensor_id;sensor_type;location;lat;lon;timestamp;P1;durP1;ratioP1;P2;durP2;ratioP2
51489;SDS011;57752;53.574;9.736;2023-07-09T00:02:32;11.00;;;4.75;;
51489;SDS011;57752;53.574;9.736;2023-07-09T00:07:33;11.65;;;5.03;;
51489;SDS011;57752;53.574;9.736;2023-07-09T00:12:33;10.60;;;4.80;;
51489;SDS011;57752;53.574;9.736;2023-07-09T00:17:33;12.23;;;4.57;;
51489;SDS011;57752;53.574;9.736;2023-07-09T00:22:33;10.43;;;4.20;;
51489;SDS011;57752;53.574;9.736;2023-07-09T00:27:34;10.98;;;4.70;;
51489;SDS011;57752;53.574;9.736;2023-07-09T00:32:34;12.30;;;4.70;;
51489;SDS011;57752;53.574;9.736;2023-07-09T00:37:43;12.13;;;4.85;;
51489;SDS011;57752;53.574;9.736;2023-07-09T00:42:47;11.13;;;4.28;;
51489;SDS011;57752;53.574;9.736;2023-07-09T00:47:48;12.95;;;5.22;;
51489;SDS011;57752;53.574;9.736;2023-07-09T00:52:52;12.13;;;4.78;;
51489;SDS011;57752;53.574;9.736;2023-07-09T00:57:55;11.00;;;4.72;;
51489;SDS011;57752;53.574;9.736;2023-07-09T01:02:56;10.60;;;4.63;;
51489;SDS011;57752;53.574;9.736;2023-07-09T01:07:58;10.67;;;4.90;;
51489;SDS011;57752;53.574;9.736;2023-07-09T01:12:58;13.93;;;4.78;;
51489;SDS011;57752;53.574;9.736;2023-07-09T01:17:58;12.50;;;4.78;;
51489;SDS011;57752;53.574;9.736;2023-07-09T01:22:58;13.75;;;5.00;;
51489;SDS011;57752;53.574;9.736;2023-07-09T01:28:00;13.07;;;4.80;;
51489;SDS011;57752;53.574;9.736;2023-07-09T01:33:01;11.15;;;4.65;;
51489;SDS011;57752;53.574;9.736;2023-07-09T01:38:01;12.57;;;5.00;;
51489;SDS011;57752;53.574;9.736;2023-07-09T01:43:02;11.10;;;4.80;;
51489;SDS011;57752;53.574;9.736;2023-07-09T01:48:06;11.25;;;4.88;;
51489;SDS011;57752;53.574;9.736;2023-07-09T01:53:07;10.88;;;5.13;;
51489;SDS011;57752;53.574;9.736;2023-07-09T01:58:08;12.23;;;5.30;;
51489;SDS011;57752;53.574;9.736;2023-07-09T02:03:08;12.05;;;5.65;;
51489;SDS011;57752;53.574;9.736;2023-07-09T02:08:08;12.93;;;5.45;;
51489;SDS011;57752;53.574;9.736;2023-07-09T02:13:09;11.57;;;4.82;;
51489;SDS011;57752;53.574;9.736;2023-07-09T02:18:10;17.67;;;5.57;;
51489;SDS011;57752;53.574;9.736;2023-07-09T02:23:10;11.85;;;5.00;;
51489;SDS011;57752;53.574;9.736;2023-07-09T02:28:10;12.68;;;5.07;;
51489;SDS011;57752;53.574;9.736;2023-07-09T02:33:10;11.02;;;4.60;;
51489;SDS011;57752;53.574;9.736;2023-07-09T02:38:11;12.43;;;5.13;;
51489;SDS011;57752;53.574;9.736;2023-07-09T02:43:11;12.15;;;4.72;;
51489;SDS011;57752;53.574;9.736;2023-07-09T02:48:11;11.68;;;5.20;;
51489;SDS011;57752;53.574;9.736;2023-07-09T02:53:11;10.57;;;5.10;;
51489;SDS011;57752;53.574;9.736;2023-07-09T02:58:11;12.82;;;4.97;;
51489;SDS011;57752;53.574;9.736;2023-07-09T03:03:11;10.43;;;4.90;;
51489;SDS011;57752;53.574;9.736;2023-07-09T03:08:11;10.73;;;4.70;;
51489;SDS011;57752;53.574;9.736;2023-07-09T03:13:12;13.97;;;5.30;;
51489;SDS011;57752;53.574;9.736;2023-07-09T03:18:12;13.38;;;5.25;;
51489;SDS011;57752;53.574;9.736;2023-07-09T03:23:12;11.75;;;5.10;;
51489;SDS011;57752;53.574;9.736;2023-07-09T03:28:12;13.75;;;5.32;;
51489;SDS011;57752;53.574;9.736;2023-07-09T03:33:13;12.95;;;5.25;;
51489;SDS011;57752;53.574;9.736;2023-07-09T03:38:13;12.80;;;5.55;;
51489;SDS011;57752;53.574;9.736;2023-07-09T03:43:14;12.77;;;5.18;;
51489;SDS011;57752;53.574;9.736;2023-07-09T03:48:14;12.90;;;5.43;;
51489;SDS011;57752;53.574;9.736;2023-07-09T03:53:16;13.63;;;5.55;;
51489;SDS011;57752;53.574;9.736;2023-07-09T03:58:16;11.40;;;5.10;;
51489;SDS011;57752;53.574;9.736;2023-07-09T04:03:16;11.20;;;4.80;;
51489;SDS011;57752;53.574;9.736;2023-07-09T04:08:17;11.80;;;5.20;;
51489;SDS011;57752;53.574;9.736;2023-07-09T04:13:17;13.83;;;5.50;;
51489;SDS011;57752;53.574;9.736;2023-07-09T04:18:17;15.32;;;5.00;;
51489;SDS011;57752;53.574;9.736;2023-07-09T04:23:17;13.60;;;5.10;;
51489;SDS011;57752;53.574;9.736;2023-07-09T04:28:18;12.90;;;4.93;;
51489;SDS011;57752;53.574;9.736;2023-07-09T04:33:18;11.85;;;4.95;;
51489;SDS011;57752;53.574;9.736;2023-07-09T04:38:19;10.65;;;4.78;;
51489;SDS011;57752;53.574;9.736;2023-07-09T04:43:19;12.27;;;4.70;;
51489;SDS011;57752;53.574;9.736;2023-07-09T04:48:19;13.70;;;5.55;;
51489;SDS011;57752;53.574;9.736;2023-07-09T04:53:19;10.23;;;4.50;;
51489;SDS011;57752;53.574;9.736;2023-07-09T04:58:20;11.60;;;4.25;;
51489;SDS011;57752;53.574;9.736;2023-07-09T05:03:20;12.15;;;3.80;;
51489;SDS011;57752;53.574;9.736;2023-07-09T05:08:20;11.00;;;4.45;;
51489;SDS011;57752;53.574;9.736;2023-07-09T05:13:22;12.05;;;4.72;;
51489;SDS011;57752;53.574;9.736;2023-07-09T05:18:22;11.02;;;4.38;;
51489;SDS011;57752;53.574;9.736;2023-07-09T05:23:24;13.00;;;4.60;;
51489;SDS011;57752;53.574;9.736;2023-07-09T05:28:24;15.57;;;4.93;;
51489;SDS011;57752;53.574;9.736;2023-07-09T05:33:25;10.95;;;4.50;;
51489;SDS011;57752;53.574;9.736;2023-07-09T05:38:25;10.65;;;4.10;;
51489;SDS011;57752;53.574;9.736;2023-07-09T05:43:25;11.35;;;3.90;;
51489;SDS011;57752;53.574;9.736;2023-07-09T05:48:26;13.30;;;4.07;;
51489;SDS011;57752;53.574;9.736;2023-07-09T05:53:26;12.02;;;4.28;;
51489;SDS011;57752;53.574;9.736;2023-07-09T05:58:26;12.55;;;4.50;;
51489;SDS011;57752;53.574;9.736;2023-07-09T06:03:26;10.43;;;4.30;;
51489;SDS011;57752;53.574;9.736;2023-07-09T06:08:26;10.55;;;4.30;;
51489;SDS011;57752;53.574;9.736;2023-07-09T06:13:27;11.88;;;4.32;;
51489;SDS011;57752;53.574;9.736;2023-07-09T06:18:27;12.00;;;4.37;;
51489;SDS011;57752;53.574;9.736;2023-07-09T06:23:30;12.38;;;4.43;;
51489;SDS011;57752;53.574;9.736;2023-07-09T06:28:30;10.93;;;4.40;;
51489;SDS011;57752;53.574;9.736;2023-07-09T06:33:31;12.50;;;4.40;;
51489;SDS011;57752;53.574;9.736;2023-07-09T06:38:31;11.43;;;4.65;;
51489;SDS011;57752;53.574;9.736;2023-07-09T06:43:31;10.73;;;4.10;;
51489;SDS011;57752;53.574;9.736;2023-07-09T06:48:32;11.70;;;4.10;;
51489;SDS011;57752;53.574;9.736;2023-07-09T06:53:32;11.73;;;4.28;;
51489;SDS011;57752;53.574;9.736;2023-07-09T06:58:32;10.63;;;4.40;;
51489;SDS011;57752;53.574;9.736;2023-07-09T07:03:33;11.63;;;4.50;;
51489;SDS011;57752;53.574;9.736;2023-07-09T07:08:33;11.17;;;4.50;;
51489;SDS011;57752;53.574;9.736;2023-07-09T07:13:34;13.53;;;4.73;;
51489;SDS011;57752;53.574;9.736;2023-07-09T07:18:35;13.37;;;4.83;;
51489;SDS011;57752;53.574;9.736;2023-07-09T07:23:36;10.30;;;4.30;;
51489;SDS011;57752;53.574;9.736;2023-07-09T07:28:36;11.25;;;4.47;;
51489;SDS011;57752;53.574;9.736;2023-07-09T07:33:38;12.80;;;4.40;;
51489;SDS011;57752;53.574;9.736;2023-07-09T07:38:38;11.80;;;5.10;;
51489;SDS011;57752;53.574;9.736;2023-07-09T07:43:39;10.50;;;4.53;;
51489;SDS011;57752;53.574;9.736;2023-07-09T07:48:39;10.38;;;4.60;;
51489;SDS011;57752;53.574;9.736;2023-07-09T07:53:39;11.27;;;4.68;;
51489;SDS011;57752;53.574;9.736;2023-07-09T07:58:39;12.18;;;4.63;;
51489;SDS011;57752;53.574;9.736;2023-07-09T08:03:39;12.50;;;4.70;;
51489;SDS011;57752;53.574;9.736;2023-07-09T08:08:39;10.65;;;4.38;;
51489;SDS011;57752;53.574;9.736;2023-07-09T08:13:40;11.32;;;4.75;;
51489;SDS011;57752;53.574;9.736;2023-07-09T08:18:40;11.27;;;4.33;;
51489;SDS011;57752;53.574;9.736;2023-07-09T08:23:40;11.23;;;4.88;;
51489;SDS011;57752;53.574;9.736;2023-07-09T08:28:40;10.57;;;4.70;;
51489;SDS011;57752;53.574;9.736;2023-07-09T08:33:41;13.27;;;4.60;;
51489;SDS011;57752;53.574;9.736;2023-07-09T08:38:41;14.97;;;4.87;;
51489;SDS011;57752;53.574;9.736;2023-07-09T08:44:00;11.68;;;4.60;;
51489;SDS011;57752;53.574;9.736;2023-07-09T08:49:03;10.48;;;4.90;;
51489;SDS011;57752;53.574;9.736;2023-07-09T08:54:23;12.27;;;5.53;;
51489;SDS011;57752;53.574;9.736;2023-07-09T08:59:25;11.40;;;4.95;;
51489;SDS011;57752;53.574;9.736;2023-07-09T09:04:29;11.10;;;4.90;;
51489;SDS011;57752;53.574;9.736;2023-07-09T09:09:37;12.07;;;4.80;;
51489;SDS011;57752;53.574;9.736;2023-07-09T09:14:39;13.02;;;5.10;;
51489;SDS011;57752;53.574;9.736;2023-07-09T09:19:45;12.25;;;4.82;;
51489;SDS011;57752;53.574;9.736;2023-07-09T09:24:59;11.65;;;5.45;;
51489;SDS011;57752;53.574;9.736;2023-07-09T09:30:02;11.68;;;5.47;;
51489;SDS011;57752;53.574;9.736;2023-07-09T09:35:11;13.37;;;5.40;;
51489;SDS011;57752;53.574;9.736;2023-07-09T09:40:11;11.32;;;5.07;;
51489;SDS011;57752;53.574;9.736;2023-07-09T09:45:12;11.68;;;5.25;;
51489;SDS011;57752;53.574;9.736;2023-07-09T09:50:20;12.70;;;5.20;;
51489;SDS011;57752;53.574;9.736;2023-07-09T09:55:24;11.88;;;5.47;;
51489;SDS011;57752;53.574;9.736;2023-07-09T10:00:26;14.05;;;5.25;;
51489;SDS011;57752;53.574;9.736;2023-07-09T10:05:29;12.32;;;5.28;;
51489;SDS011;57752;53.574;9.736;2023-07-09T10:10:32;11.25;;;5.32;;
51489;SDS011;57752;53.574;9.736;2023-07-09T10:15:41;12.60;;;5.75;;
51489;SDS011;57752;53.574;9.736;2023-07-09T10:25:51;12.13;;;5.55;;
51489;SDS011;57752;53.574;9.736;2023-07-09T10:40:59;16.42;;;5.47;;
51489;SDS011;57752;53.574;9.736;2023-07-09T10:46:01;10.93;;;5.20;;
51489;SDS011;57752;53.574;9.736;2023-07-09T10:51:02;10.98;;;5.28;;
51489;SDS011;57752;53.574;9.736;2023-07-09T10:56:06;14.87;;;5.67;;
51489;SDS011;57752;53.574;9.736;2023-07-09T11:01:07;13.25;;;5.70;;
51489;SDS011;57752;53.574;9.736;2023-07-09T11:06:13;12.20;;;5.50;;
51489;SDS011;57752;53.574;9.736;2023-07-09T11:11:24;11.30;;;5.75;;
51489;SDS011;57752;53.574;9.736;2023-07-09T11:16:32;12.40;;;6.03;;
51489;SDS011;57752;53.574;9.736;2023-07-09T11:21:40;11.98;;;5.80;;
51489;SDS011;57752;53.574;9.736;2023-07-09T11:26:46;12.30;;;5.85;;
51489;SDS011;57752;53.574;9.736;2023-07-09T11:31:46;13.43;;;5.43;;
51489;SDS011;57752;53.574;9.736;2023-07-09T11:41:51;13.35;;;5.82;;
51489;SDS011;57752;53.574;9.736;2023-07-09T11:47:04;12.00;;;5.78;;
51489;SDS011;57752;53.574;9.736;2023-07-09T11:52:12;12.90;;;5.93;;
51489;SDS011;57752;53.574;9.736;2023-07-09T11:57:13;13.73;;;5.63;;
51489;SDS011;57752;53.574;9.736;2023-07-09T12:02:17;12.30;;;5.60;;
51489;SDS011;57752;53.574;9.736;2023-07-09T12:07:20;13.50;;;5.35;;
51489;SDS011;57752;53.574;9.736;2023-07-09T12:12:24;12.73;;;5.47;;
51489;SDS011;57752;53.574;9.736;2023-07-09T12:17:27;12.25;;;5.65;;
51489;SDS011;57752;53.574;9.736;2023-07-09T12:22:30;11.45;;;5.40;;
51489;SDS011;57752;53.574;9.736;2023-07-09T12:27:31;11.70;;;5.38;;
51489;SDS011;57752;53.574;9.736;2023-07-09T12:32:43;12.00;;;5.30;;
51489;SDS011;57752;53.574;9.736;2023-07-09T12:37:43;10.95;;;5.43;;
51489;SDS011;57752;53.574;9.736;2023-07-09T12:47:45;13.85;;;6.07;;
51489;SDS011;57752;53.574;9.736;2023-07-09T12:52:47;11.57;;;5.25;;
51489;SDS011;57752;53.574;9.736;2023-07-09T12:57:47;11.18;;;5.38;;
51489;SDS011;57752;53.574;9.736;2023-07-09T13:02:52;11.73;;;5.60;;
51489;SDS011;57752;53.574;9.736;2023-07-09T13:07:54;12.23;;;5.80;;
51489;SDS011;57752;53.574;9.736;2023-07-09T13:12:59;13.48;;;6.13;;
51489;SDS011;57752;53.574;9.736;2023-07-09T13:18:00;13.55;;;5.63;;
51489;SDS011;57752;53.574;9.736;2023-07-09T13:23:04;11.18;;;5.80;;
51489;SDS011;57752;53.574;9.736;2023-07-09T13:28:14;11.98;;;5.60;;
51489;SDS011;57752;53.574;9.736;2023-07-09T13:33:14;11.93;;;6.32;;
51489;SDS011;57752;53.574;9.736;2023-07-09T13:38:15;12.30;;;6.15;;
51489;SDS011;57752;53.574;9.736;2023-07-09T13:48:18;11.90;;;5.68;;
51489;SDS011;57752;53.574;9.736;2023-07-09T13:53:23;11.60;;;5.85;;
51489;SDS011;57752;53.574;9.736;2023-07-09T13:58:24;12.07;;;6.03;;
51489;SDS011;57752;53.574;9.736;2023-07-09T14:03:25;12.10;;;6.05;;
51489;SDS011;57752;53.574;9.736;2023-07-09T14:13:26;13.85;;;6.20;;
51489;SDS011;57752;53.574;9.736;2023-07-09T14:18:28;12.70;;;5.82;;
51489;SDS011;57752;53.574;9.736;2023-07-09T14:23:29;14.45;;;5.75;;
51489;SDS011;57752;53.574;9.736;2023-07-09T14:28:29;13.07;;;5.95;;
51489;SDS011;57752;53.574;9.736;2023-07-09T14:33:30;14.45;;;5.88;;
51489;SDS011;57752;53.574;9.736;2023-07-09T14:38:30;13.77;;;5.53;;
51489;SDS011;57752;53.574;9.736;2023-07-09T14:43:30;12.57;;;5.60;;
51489;SDS011;57752;53.574;9.736;2023-07-09T14:48:30;14.00;;;6.00;;
51489;SDS011;57752;53.574;9.736;2023-07-09T14:53:30;12.27;;;6.10;;
51489;SDS011;57752;53.574;9.736;2023-07-09T14:58:30;11.82;;;5.75;;
51489;SDS011;57752;53.574;9.736;2023-07-09T15:03:30;13.10;;;5.80;;
51489;SDS011;57752;53.574;9.736;2023-07-09T15:08:31;12.35;;;5.50;;
51489;SDS011;57752;53.574;9.736;2023-07-09T15:13:32;13.65;;;5.93;;
51489;SDS011;57752;53.574;9.736;2023-07-09T15:18:32;12.20;;;5.80;;
51489;SDS011;57752;53.574;9.736;2023-07-09T15:23:38;12.70;;;6.15;;
51489;SDS011;57752;53.574;9.736;2023-07-09T15:28:39;11.65;;;5.80;;
51489;SDS011;57752;53.574;9.736;2023-07-09T15:33:39;12.90;;;5.47;;
51489;SDS011;57752;53.574;9.736;2023-07-09T15:38:39;13.68;;;5.80;;
51489;SDS011;57752;53.574;9.736;2023-07-09T15:43:42;13.00;;;5.97;;
51489;SDS011;57752;53.574;9.736;2023-07-09T15:48:42;13.80;;;6.38;;
51489;SDS011;57752;53.574;9.736;2023-07-09T15:53:43;13.77;;;6.18;;
51489;SDS011;57752;53.574;9.736;2023-07-09T15:58:44;13.65;;;5.90;;
51489;SDS011;57752;53.574;9.736;2023-07-09T16:03:51;12.23;;;6.00;;
51489;SDS011;57752;53.574;9.736;2023-07-09T16:08:51;13.70;;;6.35;;
51489;SDS011;57752;53.574;9.736;2023-07-09T16:13:52;12.00;;;6.32;;
51489;SDS011;57752;53.574;9.736;2023-07-09T16:18:52;13.65;;;6.72;;
51489;SDS011;57752;53.574;9.736;2023-07-09T16:23:53;11.82;;;5.88;;
51489;SDS011;57752;53.574;9.736;2023-07-09T16:28:53;14.43;;;6.63;;
51489;SDS011;57752;53.574;9.736;2023-07-09T16:33:53;11.33;;;5.77;;
51489;SDS011;57752;53.574;9.736;2023-07-09T16:38:54;13.00;;;6.13;;
51489;SDS011;57752;53.574;9.736;2023-07-09T16:43:54;12.47;;;6.30;;
51489;SDS011;57752;53.574;9.736;2023-07-09T16:48:54;13.02;;;6.15;;
51489;SDS011;57752;53.574;9.736;2023-07-09T16:53:54;12.55;;;6.35;;
51489;SDS011;57752;53.574;9.736;2023-07-09T16:58:54;11.90;;;6.10;;
51489;SDS011;57752;53.574;9.736;2023-07-09T17:03:54;13.77;;;6.65;;
51489;SDS011;57752;53.574;9.736;2023-07-09T17:08:55;13.85;;;6.50;;
51489;SDS011;57752;53.574;9.736;2023-07-09T17:13:55;13.57;;;6.47;;
51489;SDS011;57752;53.574;9.736;2023-07-09T17:18:55;12.93;;;6.93;;
51489;SDS011;57752;53.574;9.736;2023-07-09T17:23:55;13.10;;;6.90;;
51489;SDS011;57752;53.574;9.736;2023-07-09T17:28:56;15.47;;;7.03;;
51489;SDS011;57752;53.574;9.736;2023-07-09T17:33:56;13.55;;;6.68;;
51489;SDS011;57752;53.574;9.736;2023-07-09T17:38:56;15.95;;;7.40;;
51489;SDS011;57752;53.574;9.736;2023-07-09T17:43:57;13.23;;;6.83;;
51489;SDS011;57752;53.574;9.736;2023-07-09T17:48:57;14.52;;;7.30;;
51489;SDS011;57752;53.574;9.736;2023-07-09T17:58:59;16.95;;;7.28;;
51489;SDS011;57752;53.574;9.736;2023-07-09T18:03:59;15.50;;;6.80;;
51489;SDS011;57752;53.574;9.736;2023-07-09T18:08:59;16.67;;;7.28;;
51489;SDS011;57752;53.574;9.736;2023-07-09T18:13:59;15.00;;;6.90;;
51489;SDS011;57752;53.574;9.736;2023-07-09T18:19:00;15.10;;;7.40;;
51489;SDS011;57752;53.574;9.736;2023-07-09T18:24:03;13.95;;;7.20;;
51489;SDS011;57752;53.574;9.736;2023-07-09T18:29:04;13.33;;;7.10;;
51489;SDS011;57752;53.574;9.736;2023-07-09T18:34:08;14.52;;;7.70;;
51489;SDS011;57752;53.574;9.736;2023-07-09T18:39:09;13.27;;;7.53;;
51489;SDS011;57752;53.574;9.736;2023-07-09T18:44:12;15.57;;;8.05;;
51489;SDS011;57752;53.574;9.736;2023-07-09T18:49:14;15.15;;;8.10;;
51489;SDS011;57752;53.574;9.736;2023-07-09T18:54:16;13.67;;;7.47;;
51489;SDS011;57752;53.574;9.736;2023-07-09T18:59:17;15.02;;;7.97;;
51489;SDS011;57752;53.574;9.736;2023-07-09T19:04:19;15.02;;;8.15;;
51489;SDS011;57752;53.574;9.736;2023-07-09T19:09:23;15.13;;;7.93;;
51489;SDS011;57752;53.574;9.736;2023-07-09T19:14:24;15.00;;;8.63;;
51489;SDS011;57752;53.574;9.736;2023-07-09T19:19:24;17.13;;;8.30;;
51489;SDS011;57752;53.574;9.736;2023-07-09T19:29:27;15.38;;;7.82;;
51489;SDS011;57752;53.574;9.736;2023-07-09T19:34:27;14.40;;;8.00;;
51489;SDS011;57752;53.574;9.736;2023-07-09T19:39:35;16.90;;;7.17;;
51489;SDS011;57752;53.574;9.736;2023-07-09T19:44:35;15.60;;;6.32;;
51489;SDS011;57752;53.574;9.736;2023-07-09T19:49:35;14.80;;;4.82;;
51489;SDS011;57752;53.574;9.736;2023-07-09T19:54:35;15.15;;;3.95;;
51489;SDS011;57752;53.574;9.736;2023-07-09T19:59:35;11.65;;;4.20;;
51489;SDS011;57752;53.574;9.736;2023-07-09T20:04:36;10.38;;;4.13;;
51489;SDS011;57752;53.574;9.736;2023-07-09T20:09:36;11.98;;;4.63;;
51489;SDS011;57752;53.574;9.736;2023-07-09T20:14:36;12.20;;;4.82;;
51489;SDS011;57752;53.574;9.736;2023-07-09T20:19:36;11.45;;;4.22;;
51489;SDS011;57752;53.574;9.736;2023-07-09T20:24:38;11.93;;;5.03;;
51489;SDS011;57752;53.574;9.736;2023-07-09T20:29:38;11.65;;;4.78;;
51489;SDS011;57752;53.574;9.736;2023-07-09T20:34:38;13.37;;;5.10;;
51489;SDS011;57752;53.574;9.736;2023-07-09T20:39:39;14.25;;;6.18;;
51489;SDS011;57752;53.574;9.736;2023-07-09T20:44:40;14.35;;;5.57;;
51489;SDS011;57752;53.574;9.736;2023-07-09T20:49:40;12.70;;;5.10;;
51489;SDS011;57752;53.574;9.736;2023-07-09T20:54:42;15.03;;;6.13;;
51489;SDS011;57752;53.574;9.736;2023-07-09T20:59:42;13.23;;;6.00;;
51489;SDS011;57752;53.574;9.736;2023-07-09T21:04:43;15.77;;;6.65;;
51489;SDS011;57752;53.574;9.736;2023-07-09T21:09:43;18.27;;;8.07;;
51489;SDS011;57752;53.574;9.736;2023-07-09T21:14:43;21.02;;;7.88;;
51489;SDS011;57752;53.574;9.736;2023-07-09T21:19:44;19.15;;;9.48;;
51489;SDS011;57752;53.574;9.736;2023-07-09T21:24:50;21.67;;;10.20;;
51489;SDS011;57752;53.574;9.736;2023-07-09T21:29:50;24.58;;;11.13;;
51489;SDS011;57752;53.574;9.736;2023-07-09T21:34:51;23.10;;;12.52;;
51489;SDS011;57752;53.574;9.736;2023-07-09T21:39:52;27.27;;;12.30;;
51489;SDS011;57752;53.574;9.736;2023-07-09T21:44:52;23.13;;;10.98;;
51489;SDS011;57752;53.574;9.736;2023-07-09T21:49:52;24.83;;;13.95;;
51489;SDS011;57752;53.574;9.736;2023-07-09T21:54:53;22.65;;;12.25;;
51489;SDS011;57752;53.574;9.736;2023-07-09T21:59:53;19.48;;;10.20;;
51489;SDS011;57752;53.574;9.736;2023-07-09T22:04:53;19.08;;;9.98;;
51489;SDS011;57752;53.574;9.736;2023-07-09T22:09:54;21.83;;;11.63;;
51489;SDS011;57752;53.574;9.736;2023-07-09T22:14:55;25.88;;;12.40;;
51489;SDS011;57752;53.574;9.736;2023-07-09T22:20:00;20.17;;;10.13;;
51489;SDS011;57752;53.574;9.736;2023-07-09T22:25:00;16.58;;;8.68;;
51489;SDS011;57752;53.574;9.736;2023-07-09T22:30:02;16.60;;;8.37;;
51489;SDS011;57752;53.574;9.736;2023-07-09T22:35:04;20.67;;;9.40;;
51489;SDS011;57752;53.574;9.736;2023-07-09T22:40:18;24.02;;;10.57;;
51489;SDS011;57752;53.574;9.736;2023-07-09T22:45:20;18.73;;;8.10;;
51489;SDS011;57752;53.574;9.736;2023-07-09T22:50:27;22.30;;;10.43;;
51489;SDS011;57752;53.574;9.736;2023-07-09T22:55:29;19.38;;;9.48;;
51489;SDS011;57752;53.574;9.736;2023-07-09T23:00:31;24.88;;;11.48;;
51489;SDS011;57752;53.574;9.736;2023-07-09T23:05:33;23.77;;;11.77;;
51489;SDS011;57752;53.574;9.736;2023-07-09T23:10:33;21.80;;;11.02;;
51489;SDS011;57752;53.574;9.736;2023-07-09T23:15:33;27.63;;;12.93;;
51489;SDS011;57752;53.574;9.736;2023-07-09T23:20:33;21.58;;;10.77;;
51489;SDS011;57752;53.574;9.736;2023-07-09T23:25:33;23.65;;;10.77;;
51489;SDS011;57752;53.574;9.736;2023-07-09T23:30:34;24.35;;;11.98;;
51489;SDS011;57752;53.574;9.736;2023-07-09T23:35:35;22.77;;;10.50;;
51489;SDS011;57752;53.574;9.736;2023-07-09T23:40:35;25.38;;;10.45;;
51489;SDS011;57752;53.574;9.736;2023-07-09T23:45:35;23.95;;;11.40;;
51489;SDS011;57752;53.574;9.736;2023-07-09T23:50:35;23.00;;;11.27;;
51489;SDS011;57752;53.574;9.736;2023-07-09T23:55:35;23.90;;;12.07;;
